Kezdőlap
METAR-TAF:

METAR-TAF

Repülőterek :

Wood County Airport

Mineola-Quitman, Texas, Amerikai Egyesült Államok

földrajzi szélesség: 32-44-31N, földrajzi hosszúság: 095-29-47W, magasság: 132 m

Jelenlegi meteorológiai megfigyelések

A jelentés 21 perccel ezelõtt készült, 03:15 UTC
Szélcsend
Hőmérséklet 25°C
Páratartalom 89%
Légköri nyomás 1019 hPa
Látótávolság: 16.1 km
Derült ég

METAR: KJDD 220315Z AUTO 00000KT 10SM CLR 25/23 A3008 RMK AO2

Idő: 22:36 (03:36 UTC)


TAF: hiányzik

Meteorológiai megfigyelések és előrejelzések több, mint 4000 repülőtéren (METAR és TAF jelentéseket).

A térképen piros és sárga pontok jelzik az elérhető meteorológiai állomásokat.

Mozgassa az egeret a pont fölött, hogy megjelenjen az állomás neve.

Azután kattintson az időjárási megfigyelések és előrejelzések megtekintéséhez.

A térkép megváltoztatása: kattintson a fekete keresztel jelölt zöld gombra ráközelítéshez, a vonallal jelölt zöld gombra távolításhoz, vagy a zöld nyilakra a szomszédos térképek eléréséhez.


METAR-TAF: